createdAt,value
2023-01-21T00:00:38.513Z,-0.86
2023-01-21T00:03:05.103Z,-0.66
2023-01-21T00:05:31.765Z,-1.07
2023-01-21T00:07:58.292Z,-0.70
2023-01-21T00:10:24.852Z,-1.15
2023-01-21T00:12:51.359Z,-0.91
2023-01-21T00:15:17.992Z,-0.90
2023-01-21T00:17:44.575Z,-0.85
2023-01-21T00:20:12.751Z,-0.87
2023-01-21T00:22:39.653Z,-0.92
2023-01-21T00:25:06.831Z,-0.76
2023-01-21T00:27:33.306Z,-1.00
2023-01-21T00:29:59.809Z,-1.31
2023-01-21T00:32:26.391Z,-1.47
2023-01-21T00:34:53.042Z,-1.29
2023-01-21T00:37:19.824Z,-0.95
2023-01-21T00:39:47.346Z,-0.90
2023-01-21T00:42:15.994Z,-0.97
2023-01-21T00:44:42.580Z,-0.88
2023-01-21T00:47:09.131Z,-1.25
2023-01-21T00:49:35.661Z,-0.89
2023-01-21T00:52:02.299Z,-1.60
2023-01-21T00:54:28.861Z,-1.40
2023-01-21T00:56:55.949Z,-1.23
2023-01-21T00:59:22.691Z,-2.13
2023-01-21T01:01:49.299Z,-1.55
2023-01-21T01:04:16.067Z,-1.85
2023-01-21T01:06:43.621Z,-2.40
2023-01-21T01:09:11.196Z,-1.56
2023-01-21T01:11:37.748Z,-1.86
2023-01-21T01:14:05.011Z,-1.66
2023-01-21T01:16:31.531Z,-1.51
2023-01-21T01:18:58.223Z,-1.73
2023-01-21T01:21:24.862Z,-1.76
2023-01-21T01:23:55.747Z,-1.89
2023-01-21T01:26:22.523Z,-2.60
2023-01-21T01:28:49.304Z,-2.62
2023-01-21T01:31:18.308Z,-1.94
2023-01-21T01:33:45.616Z,-2.48
2023-01-21T01:36:19.199Z,-2.07
2023-01-21T01:38:46.523Z,-2.21
2023-01-21T01:41:16.715Z,-2.26
2023-01-21T01:43:58.728Z,-2.02
2023-01-21T01:46:31.376Z,-2.43
2023-01-21T01:49:16.998Z,-3.16
2023-01-21T01:51:53.091Z,-2.43
2023-01-21T01:54:33.745Z,-2.66
2023-01-21T01:57:03.741Z,-2.93
2023-01-21T01:59:31.873Z,-2.61
2023-01-21T02:02:03.382Z,-2.81
2023-01-21T02:04:37.572Z,-2.47
2023-01-21T02:07:04.696Z,-2.71
2023-01-21T02:09:31.236Z,-2.79
2023-01-21T02:12:01.395Z,-2.58
2023-01-21T02:14:30.551Z,-2.50
2023-01-21T02:17:07.245Z,-2.39
2023-01-21T02:19:48.039Z,-3.23
2023-01-21T02:22:43.447Z,-3.01
2023-01-21T02:25:43.245Z,-2.26
2023-01-21T02:28:36.387Z,-2.43
2023-01-21T02:31:09.054Z,-2.49
2023-01-21T02:33:56.148Z,-2.49
2023-01-21T02:36:43.453Z,-2.38
2023-01-21T02:39:25.892Z,-2.87
2023-01-21T02:42:06.034Z,-2.10
2023-01-21T02:44:42.860Z,-2.60
2023-01-21T02:47:19.338Z,-2.30
2023-01-21T02:49:48.575Z,-2.81
2023-01-21T02:52:20.603Z,-2.46
2023-01-21T02:54:53.915Z,-2.44
2023-01-21T02:57:31.095Z,-2.24
2023-01-21T02:59:59.637Z,-2.70
2023-01-21T03:02:54.954Z,-2.30
2023-01-21T03:05:35.030Z,-2.43
2023-01-21T03:08:27.916Z,-2.31
2023-01-21T03:11:15.934Z,-2.36
2023-01-21T03:14:08.339Z,-2.26
2023-01-21T03:16:58.669Z,-2.20
2023-01-21T03:19:32.567Z,-2.70
2023-01-21T03:22:02.420Z,-2.21
2023-01-21T03:24:29.217Z,-2.74
2023-01-21T03:26:59.379Z,-2.38
2023-01-21T03:29:28.810Z,-2.62
2023-01-21T03:31:59.761Z,-2.33
2023-01-21T03:34:29.962Z,-2.96
2023-01-21T03:37:16.026Z,-2.21
2023-01-21T03:40:00.206Z,-2.28
2023-01-21T03:42:27.393Z,-2.80
2023-01-21T03:44:54.606Z,-2.30
2023-01-21T03:47:31.912Z,-1.91
2023-01-21T03:50:04.290Z,-1.94
2023-01-21T03:52:32.167Z,-2.06
2023-01-21T03:54:59.090Z,-2.01
2023-01-21T03:57:25.729Z,-1.64
2023-01-21T03:59:53.354Z,-2.38
2023-01-21T04:02:21.122Z,-1.93
2023-01-21T04:04:48.027Z,-2.29
2023-01-21T04:07:16.254Z,-2.38
2023-01-21T04:09:43.255Z,-2.24
2023-01-21T04:12:09.801Z,-2.87
2023-01-21T04:14:36.389Z,-2.48
2023-01-21T04:17:02.943Z,-2.72
2023-01-21T04:19:29.552Z,-3.16
2023-01-21T04:21:56.103Z,-2.79
2023-01-21T04:24:22.654Z,-2.36
2023-01-21T04:26:49.160Z,-2.76
2023-01-21T04:29:15.771Z,-2.90
2023-01-21T04:31:42.480Z,-2.68
2023-01-21T04:34:09.163Z,-4.00
2023-01-21T04:36:35.839Z,-2.84
2023-01-21T04:39:02.595Z,-3.07
2023-01-21T04:41:29.124Z,-3.35
2023-01-21T04:43:55.709Z,-2.97
2023-01-21T04:46:22.445Z,-3.78
2023-01-21T04:48:49.152Z,-3.26
2023-01-21T04:51:15.632Z,-3.14
2023-01-21T04:53:42.284Z,-3.76
2023-01-21T04:56:08.819Z,-3.17
2023-01-21T04:58:35.392Z,-3.29
2023-01-21T05:01:02.001Z,-4.09
2023-01-21T05:03:28.624Z,-3.67
2023-01-21T05:05:55.130Z,-3.46
2023-01-21T05:08:21.641Z,-4.10
2023-01-21T05:10:48.308Z,-4.21
2023-01-21T05:13:14.815Z,-3.45
2023-01-21T05:15:41.417Z,-3.63
2023-01-21T05:18:08.116Z,-3.08
2023-01-21T05:20:35.136Z,-3.34
2023-01-21T05:23:01.789Z,-3.57
2023-01-21T05:25:28.436Z,-3.02
2023-01-21T05:27:55.739Z,-3.19
2023-01-21T05:30:22.651Z,-2.98
2023-01-21T05:32:53.193Z,-3.32
2023-01-21T05:35:23.989Z,-2.99
2023-01-21T05:37:50.928Z,-3.05
2023-01-21T05:40:18.542Z,-3.58
2023-01-21T05:42:46.349Z,-4.49
2023-01-21T05:45:14.175Z,-3.29
2023-01-21T05:47:41.017Z,-3.35
2023-01-21T05:50:08.751Z,-3.46
2023-01-21T05:52:35.594Z,-3.50
2023-01-21T05:55:03.182Z,-4.07
2023-01-21T05:57:30.680Z,-4.67
2023-01-21T05:59:58.067Z,-3.78
2023-01-21T06:02:25.509Z,-4.13
2023-01-21T06:04:53.470Z,-3.89
2023-01-21T06:07:20.767Z,-5.00
2023-01-21T06:09:47.278Z,-3.79
2023-01-21T06:12:13.831Z,-3.66
2023-01-21T06:14:40.331Z,-4.53
2023-01-21T06:17:07.029Z,-4.02
2023-01-21T06:19:33.665Z,-3.98
2023-01-21T06:22:00.207Z,-4.34
2023-01-21T06:24:28.151Z,-4.44
2023-01-21T06:26:54.834Z,-4.57
2023-01-21T06:29:21.345Z,-5.62
2023-01-21T06:31:47.961Z,-4.63
2023-01-21T06:34:15.064Z,-4.53
2023-01-21T06:36:43.109Z,-4.71
2023-01-21T06:39:11.096Z,-4.64
2023-01-21T06:41:37.672Z,-4.07
2023-01-21T06:44:04.383Z,-4.19
2023-01-21T06:46:31.302Z,-3.54
2023-01-21T06:48:57.862Z,-3.59
2023-01-21T06:51:24.614Z,-3.62
2023-01-21T06:53:51.229Z,-3.58
2023-01-21T06:56:18.003Z,-3.47
2023-01-21T06:58:44.662Z,-3.60
2023-01-21T07:01:12.603Z,-3.82
2023-01-21T07:03:40.584Z,-3.49
2023-01-21T07:06:08.221Z,-4.28
2023-01-21T07:08:35.918Z,-3.99
2023-01-21T07:11:07.395Z,-3.94
2023-01-21T07:13:35.691Z,-4.87
2023-01-21T07:16:06.024Z,-3.81
2023-01-21T07:18:37.511Z,-4.08
2023-01-21T07:21:04.584Z,-4.78
2023-01-21T07:23:31.558Z,-4.10
2023-01-21T07:26:02.773Z,-4.39
2023-01-21T07:28:31.303Z,-4.43
2023-01-21T07:31:02.113Z,-4.11
2023-01-21T07:33:29.403Z,-4.65
2023-01-21T07:35:57.566Z,-4.57
2023-01-21T07:38:25.705Z,-5.26
2023-01-21T07:40:52.449Z,-4.72
2023-01-21T07:43:18.989Z,-5.03
2023-01-21T07:45:46.085Z,-4.49
2023-01-21T07:48:12.862Z,-4.98
2023-01-21T07:50:39.469Z,-3.40
2023-01-21T07:53:06.020Z,-3.92
2023-01-21T07:55:33.259Z,-3.89
2023-01-21T07:57:59.899Z,-4.07
2023-01-21T08:00:29.380Z,-4.72
2023-01-21T08:02:57.155Z,-4.90
2023-01-21T08:05:25.288Z,-4.52
2023-01-21T08:07:52.408Z,-5.63
2023-01-21T08:10:19.883Z,-4.57
2023-01-21T08:12:48.014Z,-4.85
2023-01-21T08:15:16.411Z,-5.04
2023-01-21T08:17:44.775Z,-4.96
2023-01-21T08:20:14.676Z,-5.17
2023-01-21T08:22:41.355Z,-5.53
2023-01-21T08:25:08.302Z,-5.63
2023-01-21T08:27:34.807Z,-5.57
2023-01-21T08:30:01.421Z,-5.40
2023-01-21T08:32:33.429Z,-6.59
2023-01-21T08:35:01.400Z,-5.63
2023-01-21T08:37:31.001Z,-5.38
2023-01-21T08:40:00.118Z,-5.05
2023-01-21T08:42:26.770Z,-5.80
2023-01-21T08:44:54.007Z,-4.91
2023-01-21T08:47:21.011Z,-4.87
2023-01-21T08:49:47.604Z,-4.88
2023-01-21T08:52:14.647Z,-5.29
2023-01-21T08:54:41.413Z,-4.96
2023-01-21T08:57:09.024Z,-5.39
2023-01-21T08:59:35.898Z,-6.08
2023-01-21T09:02:02.462Z,-5.05
2023-01-21T09:04:30.190Z,-5.47
2023-01-21T09:06:57.025Z,-4.75
2023-01-21T09:09:24.429Z,-4.89
2023-01-21T09:11:52.457Z,-5.18
2023-01-21T09:14:20.058Z,-4.51
2023-01-21T09:16:51.539Z,-4.50
2023-01-21T09:19:19.037Z,-4.67
2023-01-21T09:21:45.678Z,-4.36
2023-01-21T09:24:12.476Z,-4.59
2023-01-21T09:26:46.366Z,-4.93
2023-01-21T09:29:13.441Z,-4.01
2023-01-21T09:31:40.124Z,-4.46
2023-01-21T09:34:06.715Z,-4.37
2023-01-21T09:36:35.362Z,-3.77
2023-01-21T09:39:03.120Z,-4.43
2023-01-21T09:41:38.305Z,-3.84
2023-01-21T09:44:16.608Z,-3.73
2023-01-21T09:47:07.525Z,-3.79
2023-01-21T09:49:49.117Z,-3.80
2023-01-21T09:52:24.436Z,-3.73
2023-01-21T09:54:52.571Z,-5.02
2023-01-21T09:57:45.301Z,-4.82
2023-01-21T10:00:29.740Z,-3.54
2023-01-21T10:03:11.157Z,-3.37
2023-01-21T10:05:53.587Z,-3.94
2023-01-21T10:08:43.917Z,-3.20
2023-01-21T10:11:29.383Z,-3.35
2023-01-21T10:14:33.783Z,-3.29
2023-01-21T10:17:21.523Z,-3.55
2023-01-21T10:20:13.429Z,-3.35
2023-01-21T10:22:51.040Z,-3.18
2023-01-21T10:25:30.175Z,-3.61
2023-01-21T10:28:23.132Z,-3.26
2023-01-21T10:30:53.357Z,-3.31
2023-01-21T10:33:26.175Z,-3.26
2023-01-21T10:36:22.122Z,-3.18
2023-01-21T10:38:52.147Z,-3.31
2023-01-21T10:41:58.261Z,-3.00
2023-01-21T10:44:34.024Z,-3.51
2023-01-21T10:47:14.578Z,-3.39
2023-01-21T10:50:02.816Z,-3.59
2023-01-21T10:52:34.102Z,-3.34
2023-01-21T10:55:05.131Z,-3.94
2023-01-21T10:58:03.014Z,-3.85
2023-01-21T11:00:36.337Z,-4.06
2023-01-21T11:03:19.602Z,-3.91
2023-01-21T11:05:50.072Z,-4.21
2023-01-21T11:08:22.658Z,-3.71
2023-01-21T11:10:55.785Z,-3.55
2023-01-21T11:13:24.109Z,-3.53
2023-01-21T11:15:53.825Z,-3.34
2023-01-21T11:18:35.737Z,-3.82
2023-01-21T11:21:19.061Z,-3.34
2023-01-21T11:24:03.689Z,-3.31
2023-01-21T11:26:36.122Z,-3.26
2023-01-21T11:29:18.068Z,-4.23
2023-01-21T11:31:48.648Z,-3.48
2023-01-21T11:34:23.152Z,-3.08
2023-01-21T11:36:59.002Z,-4.00
2023-01-21T11:39:29.463Z,-3.65
2023-01-21T11:42:05.875Z,-3.58
2023-01-21T11:44:34.985Z,-3.80
2023-01-21T11:47:37.943Z,-3.47
2023-01-21T11:50:19.290Z,-3.40
2023-01-21T11:52:47.531Z,-3.65
2023-01-21T11:55:21.779Z,-3.41
2023-01-21T11:57:53.696Z,-3.27
2023-01-21T12:00:28.562Z,-3.85
2023-01-21T12:03:02.190Z,-4.62
2023-01-21T12:05:33.617Z,-3.96
2023-01-21T12:08:01.157Z,-4.55
2023-01-21T12:10:33.485Z,-4.02
2023-01-21T12:13:15.175Z,-3.98
2023-01-21T12:16:07.846Z,-4.05
2023-01-21T12:18:43.129Z,-4.05
2023-01-21T12:21:38.161Z,-4.05
2023-01-21T12:24:35.825Z,-4.27
2023-01-21T12:27:35.054Z,-4.08
2023-01-21T12:30:34.157Z,-4.23
2023-01-21T12:33:17.898Z,-4.36
2023-01-21T12:36:36.356Z,-4.33
2023-01-21T12:39:16.945Z,-4.66
2023-01-21T12:41:51.154Z,-4.86
2023-01-21T12:44:42.230Z,-4.08
2023-01-21T12:47:21.236Z,-4.78
2023-01-21T12:50:11.166Z,-4.31
2023-01-21T12:52:48.626Z,-4.16
2023-01-21T12:55:24.354Z,-3.95
2023-01-21T12:58:05.373Z,-4.76
2023-01-21T13:00:40.204Z,-4.45
2023-01-21T13:03:10.142Z,-4.29
2023-01-21T13:06:08.775Z,-4.13
2023-01-21T13:08:54.644Z,-4.47
2023-01-21T13:11:39.229Z,-5.05
2023-01-21T13:14:09.976Z,-4.08
2023-01-21T13:16:46.473Z,-4.42
2023-01-21T13:19:15.959Z,-5.58
2023-01-21T13:22:02.231Z,-4.33
2023-01-21T13:24:34.406Z,-4.47
2023-01-21T13:27:20.113Z,-4.35
2023-01-21T13:30:01.923Z,-4.25
2023-01-21T13:32:42.440Z,-4.42
2023-01-21T13:35:23.555Z,-4.39
2023-01-21T13:38:00.192Z,-4.56
2023-01-21T13:40:39.453Z,-4.41
2023-01-21T13:43:54.574Z,-4.46
2023-01-21T13:46:47.445Z,-4.66
2023-01-21T13:49:34.537Z,-4.25
2023-01-21T13:52:22.878Z,-4.21
2023-01-21T13:55:08.392Z,-4.33
2023-01-21T13:58:24.584Z,-4.22
2023-01-21T14:01:06.836Z,-4.24
2023-01-21T14:03:51.889Z,-4.54
2023-01-21T14:06:38.952Z,-4.12
2023-01-21T14:09:24.636Z,-4.19
2023-01-21T14:12:09.440Z,-4.10
2023-01-21T14:14:53.769Z,-4.23
2023-01-21T14:17:34.113Z,-4.25
2023-01-21T14:20:15.157Z,-4.07
2023-01-21T14:23:00.249Z,-4.22
2023-01-21T14:26:08.863Z,-4.34
2023-01-21T14:29:18.158Z,-4.12
2023-01-21T14:31:51.029Z,-3.97
2023-01-21T14:34:55.951Z,-4.08
2023-01-21T14:37:38.655Z,-4.11
2023-01-21T14:40:17.297Z,-4.63
2023-01-21T14:42:49.951Z,-3.93
2023-01-21T14:45:22.527Z,-4.28
2023-01-21T14:47:54.348Z,-4.05
2023-01-21T14:50:54.787Z,-4.03
2023-01-21T14:53:26.402Z,-4.17
2023-01-21T14:56:07.139Z,-4.09
2023-01-21T14:58:37.271Z,-4.22
2023-01-21T15:01:07.454Z,-5.50
2023-01-21T15:03:48.081Z,-4.89
2023-01-21T15:06:23.796Z,-3.91
2023-01-21T15:08:57.798Z,-4.38
2023-01-21T15:11:39.944Z,-4.04
2023-01-21T15:14:33.270Z,-3.76
2023-01-21T15:17:03.058Z,-4.03
2023-01-21T15:19:35.334Z,-4.14
2023-01-21T15:22:17.844Z,-3.79
2023-01-21T15:25:02.128Z,-4.51
2023-01-21T15:27:32.881Z,-3.76
2023-01-21T15:30:02.422Z,-3.63
2023-01-21T15:32:32.198Z,-3.58
2023-01-21T15:35:05.531Z,-3.36
2023-01-21T15:37:36.502Z,-5.17
2023-01-21T15:40:16.990Z,-3.87
2023-01-21T15:43:03.358Z,-3.38
2023-01-21T15:45:45.900Z,-3.33
2023-01-21T15:48:41.198Z,-3.73
2023-01-21T15:51:31.515Z,-3.31
2023-01-21T15:54:28.971Z,-3.40
2023-01-21T15:56:58.526Z,-3.16
2023-01-21T16:00:23.938Z,-3.22
2023-01-21T16:02:58.187Z,-3.34
2023-01-21T16:05:46.683Z,-3.30
2023-01-21T16:08:51.698Z,-3.45
2023-01-21T16:11:43.570Z,-3.40
2023-01-21T16:14:31.793Z,-3.26
2023-01-21T16:17:50.496Z,-3.63
2023-01-21T16:20:21.201Z,-3.35
2023-01-21T16:22:52.824Z,-3.77
2023-01-21T16:25:24.614Z,-4.02
2023-01-21T16:28:03.715Z,-3.34
2023-01-21T16:30:32.286Z,-3.01
2023-01-21T16:33:13.841Z,-3.27
2023-01-21T16:35:53.085Z,-2.90
2023-01-21T16:38:25.395Z,-3.43
2023-01-21T16:41:12.544Z,-3.07
2023-01-21T16:44:00.085Z,-2.88
2023-01-21T16:46:41.216Z,-3.17
2023-01-21T16:49:15.995Z,-3.17
2023-01-21T16:51:55.028Z,-3.06
2023-01-21T16:54:32.263Z,-4.21
2023-01-21T16:57:21.276Z,-3.83
2023-01-21T16:59:50.084Z,-3.31
2023-01-21T17:02:26.990Z,-3.31
2023-01-21T17:05:00.014Z,-3.46
2023-01-21T17:07:35.149Z,-3.24
2023-01-21T17:10:06.265Z,-3.17
2023-01-21T17:12:36.311Z,-4.20
2023-01-21T17:15:18.245Z,-3.29
2023-01-21T17:17:48.916Z,-3.19
2023-01-21T17:20:32.777Z,-3.38
2023-01-21T17:23:09.537Z,-3.41
2023-01-21T17:25:37.102Z,-3.28
2023-01-21T17:28:28.583Z,-3.24
2023-01-21T17:31:13.988Z,-3.26
2023-01-21T17:33:42.166Z,-3.33
2023-01-21T17:36:13.636Z,-3.23
2023-01-21T17:38:42.709Z,-3.08
2023-01-21T17:41:33.535Z,-3.17
2023-01-21T17:44:14.584Z,-3.15
2023-01-21T17:46:50.225Z,-3.12
2023-01-21T17:49:24.852Z,-3.30
2023-01-21T17:51:55.511Z,-3.31
2023-01-21T17:54:24.782Z,-3.18
2023-01-21T17:56:57.307Z,-3.31
2023-01-21T17:59:31.524Z,-3.02
2023-01-21T18:01:58.275Z,-3.05
2023-01-21T18:04:24.826Z,-3.19
2023-01-21T18:06:53.441Z,-3.09
2023-01-21T18:09:22.500Z,-2.85
2023-01-21T18:11:53.946Z,-3.39
2023-01-21T18:14:25.352Z,-2.96
2023-01-21T18:16:55.879Z,-3.44
2023-01-21T18:19:32.014Z,-2.89
2023-01-21T18:22:02.142Z,-3.01
2023-01-21T18:24:33.365Z,-3.14
2023-01-21T18:27:01.862Z,-3.09
2023-01-21T18:29:31.230Z,-2.65
2023-01-21T18:31:59.158Z,-2.61
2023-01-21T18:34:29.161Z,-3.29
2023-01-21T18:36:57.695Z,-2.72
2023-01-21T18:39:26.825Z,-3.27
2023-01-21T18:41:56.594Z,-2.65
2023-01-21T18:44:24.282Z,-2.82
2023-01-21T18:46:52.450Z,-2.45
2023-01-21T18:49:25.997Z,-2.35
2023-01-21T18:51:55.733Z,-2.56
2023-01-21T18:54:22.235Z,-2.16
2023-01-21T18:56:49.454Z,-0.40
2023-01-21T18:59:18.154Z,-0.55
2023-01-21T19:01:45.302Z,-1.62
2023-01-21T19:04:18.976Z,-1.71
2023-01-21T19:06:47.785Z,-1.74
2023-01-21T19:09:23.437Z,-1.82
2023-01-21T19:11:50.705Z,-2.25
2023-01-21T19:14:17.840Z,-2.10
2023-01-21T19:16:44.834Z,-3.06
2023-01-21T19:19:16.661Z,-2.10
2023-01-21T19:21:43.322Z,-2.17
2023-01-21T19:24:12.084Z,-2.75
2023-01-21T19:26:40.380Z,-2.47
2023-01-21T19:29:15.539Z,-3.16
2023-01-21T19:31:42.625Z,-2.61
2023-01-21T19:34:10.311Z,-2.89
2023-01-21T19:36:36.994Z,-3.14
2023-01-21T19:39:03.723Z,-2.89
2023-01-21T19:41:30.235Z,-3.13
2023-01-21T19:43:56.909Z,-2.50
2023-01-21T19:46:24.038Z,-2.41
2023-01-21T19:48:53.418Z,-2.78
2023-01-21T19:51:20.003Z,-3.13
2023-01-21T19:53:46.569Z,-2.72
2023-01-21T19:56:18.576Z,-2.80
2023-01-21T19:58:48.500Z,-3.02
2023-01-21T20:01:15.081Z,-2.58
2023-01-21T20:03:54.664Z,-3.30
2023-01-21T20:06:26.426Z,-2.37
2023-01-21T20:08:53.171Z,-2.33
2023-01-21T20:11:19.700Z,-2.51
2023-01-21T20:13:46.263Z,-2.58
2023-01-21T20:16:18.714Z,-2.27
2023-01-21T20:18:46.189Z,-2.31
2023-01-21T20:21:12.905Z,-2.54
2023-01-21T20:23:39.474Z,-2.28
2023-01-21T20:26:16.248Z,-2.22
2023-01-21T20:28:47.719Z,-1.94
2023-01-21T20:31:14.505Z,-2.09
2023-01-21T20:33:42.514Z,-1.96
2023-01-21T20:36:18.228Z,-1.97
2023-01-21T20:38:45.346Z,-2.42
2023-01-21T20:41:13.486Z,-2.11
2023-01-21T20:43:40.752Z,-2.09
2023-01-21T20:46:14.913Z,-3.02
2023-01-21T20:48:43.683Z,-1.93
2023-01-21T20:51:10.720Z,-2.92
2023-01-21T20:53:38.205Z,-1.94
2023-01-21T20:56:16.539Z,-2.12
2023-01-21T20:58:44.989Z,-2.40
2023-01-21T21:03:44.189Z,-2.27
2023-01-21T21:06:15.680Z,-2.47
2023-01-21T21:08:42.764Z,-2.02
2023-01-21T21:11:10.055Z,-2.42
2023-01-21T21:13:37.090Z,-2.99
2023-01-21T21:16:16.746Z,-2.09
2023-01-21T21:18:43.284Z,-1.98
2023-01-21T21:21:12.231Z,-2.90
2023-01-21T21:23:38.725Z,-2.53
2023-01-21T21:26:15.273Z,-1.91
2023-01-21T21:28:41.805Z,-2.09
2023-01-21T21:31:12.228Z,-2.20
2023-01-21T21:33:38.872Z,-1.89
2023-01-21T21:36:06.056Z,-2.07
2023-01-21T21:38:32.661Z,-2.39
2023-01-21T21:41:19.094Z,-2.41
2023-01-21T21:43:45.588Z,-2.16
2023-01-21T21:46:31.295Z,-2.45
2023-01-21T21:48:57.851Z,-2.01
2023-01-21T21:51:24.648Z,-2.35
2023-01-21T21:53:51.425Z,-2.77
2023-01-21T21:56:21.102Z,-1.96
2023-01-21T21:58:48.681Z,-2.14
2023-01-21T22:01:25.081Z,-1.98
2023-01-21T22:03:52.271Z,-2.42
2023-01-21T22:06:20.698Z,-2.59
2023-01-21T22:08:47.537Z,-2.07
2023-01-21T22:11:18.390Z,-2.56
2023-01-21T22:13:50.119Z,-2.64
2023-01-21T22:16:28.703Z,-2.44
2023-01-21T22:18:56.891Z,-2.28
2023-01-21T22:21:26.160Z,-2.70
2023-01-21T22:23:53.847Z,-2.23
2023-01-21T22:26:22.707Z,-2.19
2023-01-21T22:28:53.380Z,-2.29
2023-01-21T22:31:23.606Z,-2.44
2023-01-21T22:33:50.782Z,-2.62
2023-01-21T22:36:19.465Z,-2.52
2023-01-21T22:38:46.566Z,-2.27
2023-01-21T22:41:15.294Z,-2.29
2023-01-21T22:43:44.840Z,-3.29
2023-01-21T22:46:14.312Z,-2.22
2023-01-21T22:48:42.118Z,-2.13
2023-01-21T22:51:12.480Z,-3.07
2023-01-21T22:53:43.936Z,-2.78
2023-01-21T22:56:12.477Z,-2.51
2023-01-21T22:58:39.085Z,-2.28
2023-01-21T23:01:07.497Z,-2.17
2023-01-21T23:03:34.136Z,-2.86
2023-01-21T23:06:05.634Z,-3.05
2023-01-21T23:08:32.285Z,-2.55
2023-01-21T23:11:07.138Z,-2.48
2023-01-21T23:13:34.550Z,-3.04
2023-01-21T23:16:01.259Z,-3.02
2023-01-21T23:18:29.124Z,-2.68
2023-01-21T23:20:56.371Z,-2.58
2023-01-21T23:23:24.685Z,-2.75
2023-01-21T23:25:51.352Z,-2.36
2023-01-21T23:28:17.861Z,-3.00
2023-01-21T23:30:44.515Z,-2.45
2023-01-21T23:33:11.893Z,-2.60
2023-01-21T23:35:38.375Z,-2.52
2023-01-21T23:38:05.064Z,-2.65
2023-01-21T23:40:31.541Z,-2.38
2023-01-21T23:42:58.097Z,-2.46
2023-01-21T23:45:24.602Z,-2.13
2023-01-21T23:47:51.225Z,-2.21
2023-01-21T23:50:18.995Z,-2.10
2023-01-21T23:52:45.825Z,-2.05
2023-01-21T23:55:12.757Z,-3.00
2023-01-21T23:57:39.246Z,-2.67
